Rutland, VT

7:07 PM EST on November 22, 2014 (GMT -0500)
NWS CO-OP RUTV1 | Change Station
CLOSE
Current Station
Personal Weather Station
Location: Rutland, VT
Elevation: 620 ft
Nearby Weather Stations

Elev 620 ft 43.63 °N, 72.98 °W | Updated 7 minutes ago

Overcast
Overcast
35.1 °F
Feels Like 35 °F
N
1.0
Wind Variable Wind from ENE
Gusts 2.0 mph

Today
High -- | Low -- °F
--% Chance of Precip.
Yesterday
High -- | Low -- °F
Precip. -- in
6:54 AM 4:21 PM
New Moon, 0% visible
Pressure 30.03 in
Visibility 10.0 miles
Clouds Overcast 3500 ft
Windchill 35 °F
Dew Point 24 °F
Humidity 64%
Rainfall 0.00 in
Snow Depth Not available.
UV 0 out of 12
Pollen .10 out of 12
Air Quality Not available.
Flu Activity Not available.
METAR KRUT 222355Z 00000KT 10SM OVC035 04/M07 A3003 RMK AO1 10040 20010 400401070 57007

More Conditions Fewer Conditions

Pressure 30.03 in
Visibility 10.0 miles
Clouds Overcast 3500 ft
Windchill 35 °F
Dew Point 24 °F
Humidity 64%
Rainfall 0.00 in
Snow Depth Not available.
UV 0 out of 12
Pollen .10 out of 12
Air Quality Not available.
Flu Activity Not available.
METAR KRUT 222355Z 00000KT 10SM OVC035 04/M07 A3003 RMK AO1 10040 20010 400401070 57007

More Conditions Fewer Conditions

10-Day Weather Forecast

Almanac

Astronomy

Nov. 22, 2014 Rise Set
Actual Time
Civil Twilight
Nautical Twilight
Astronomical Twilight
Moon
Length of Visible Light
Length of Day
Tomorrow will be .
, % of the Moon is Illuminated

Today's Extremes

State Highs State Lows

Community

WunderPhotos

Upload Photos

1,772,930 photos uploaded!

WunderBlogs® & News

Nearby

Air Quality

  Air Quality AQ Index Pollutant
Not available.

Snow Depth

Station Depth Elevation

Earthquake Activity

City Distance Mag. Time & Date
Minimum magnitude displayed is 2.5.

Coastal Water Temperatures

Place Temperature

Nearby Weather Stations